This is the latest recevied weather packets stored in our database for station/object OK2ZI. If no packets are shown the sender has not sent any weather packets the latest 10 day(s).
| Time | Temp. | Humidity | Pressure | Rain* | Wind** | Luminosity | Snow |
|---|---|---|---|---|---|---|---|
| 1778216417 | 8.89° C | 89% | 1014 hPa | 0 mm | - | - | - |
| 1778215566 | 7.78° C | 92% | 1013 hPa | 0 mm | - | - | - |
| 1778215211 | 7.22° C | 92% | 1013 hPa | 0 mm | - | - | - |
| 1778214727 | 6.67° C | 93% | 1013 hPa | 0 mm | - | - | - |
| 1778214486 | 6.67° C | 93% | 1014 hPa | 0 mm | - | - | - |
| 1778212685 | 5° C | 95% | 1013 hPa | 0 mm | - | - | - |
| 1778211612 | 5° C | 95% | 1013 hPa | 0 mm | - | - | - |
| 1778210646 | 5° C | 95% | 1013 hPa | 0 mm | - | - | - |
| 1778210287 | 5.56° C | 94% | 1013 hPa | 0 mm | - | - | - |
| 1778210165 | 5.56° C | 94% | 1013 hPa | 0 mm | - | - | - |
| 1778209219 | 6.11° C | 93% | 1013 hPa | 0 mm | - | - | - |
| 1778209086 | 6.11° C | 93% | 1013 hPa | 0 mm | - | - | - |
| 1778207766 | 5° C | 94% | 1013 hPa | 0 mm | - | - | - |
| 1778207046 | 4.44° C | 93% | 1013 hPa | 0 mm | - | - | - |
| 1778206566 | 5° C | 94% | 1013 hPa | 0 mm | - | - | - |
| 1778206446 | 5° C | 94% | 1013 hPa | 0 mm | - | - | - |
| 1778203925 | 6.11° C | 92% | 1013 hPa | 0 mm | - | - | - |
| 1778202486 | 5° C | 92% | 1013 hPa | 0 mm | - | - | - |
| 1778201767 | 5.56° C | 90% | 1013 hPa | 0 mm | - | - | - |
| 1778201286 | 5.56° C | 90% | 1013 hPa | 0 mm | - | - | - |
| 1778199726 | 7.78° C | 85% | 1012 hPa | 0 mm | - | - | - |
| 1778199611 | 7.78° C | 85% | 1012 hPa | 0 mm | - | - | - |
| 1778199486 | 7.78° C | 85% | 1012 hPa | 0 mm | - | - | - |
| 1778197218 | 9.44° C | 79% | 1013 hPa | 0 mm | - | - | - |
| 1778196726 | 10° C | 77% | 1013 hPa | 0 mm | - | - | - |
* Rain latest hour (hover to see other rain measurements)
** Current wind speed in m/s (hover to see current wind gust speed)